createdAt,value
2018-02-18T00:00:55.855Z,13.18
2018-02-18T00:03:25.930Z,13.57
2018-02-18T00:05:55.686Z,13.32
2018-02-18T00:08:25.605Z,11.30
2018-02-18T00:10:55.390Z,11.10
2018-02-18T00:13:25.257Z,10.43
2018-02-18T00:15:55.250Z,11.45
2018-02-18T00:18:25.164Z,11.50
2018-02-18T00:21:01.719Z,12.37
2018-02-18T00:23:31.479Z,12.60
2018-02-18T00:26:01.260Z,12.40
2018-02-18T00:28:31.732Z,11.73
2018-02-18T00:31:01.486Z,11.88
2018-02-18T00:33:31.265Z,11.23
2018-02-18T00:36:01.184Z,11.35
2018-02-18T00:38:30.913Z,9.73
2018-02-18T00:41:00.708Z,11.70
2018-02-18T00:43:30.517Z,11.68
2018-02-18T00:46:00.301Z,11.52
2018-02-18T00:48:30.938Z,11.65
2018-02-18T00:51:00.671Z,11.23
2018-02-18T00:53:30.534Z,11.25
2018-02-18T00:56:01.004Z,11.65
2018-02-18T00:58:30.909Z,11.63
2018-02-18T01:01:01.754Z,11.60
2018-02-18T01:03:32.314Z,9.88
2018-02-18T01:06:02.065Z,9.57
2018-02-18T01:08:31.912Z,9.80
2018-02-18T01:11:02.220Z,10.63
2018-02-18T01:13:31.892Z,12.20
2018-02-18T01:16:01.894Z,10.55
2018-02-18T01:18:31.612Z,12.20
2018-02-18T01:21:01.356Z,10.63
2018-02-18T01:23:31.073Z,11.32
2018-02-18T01:26:01.249Z,10.93
2018-02-18T01:28:31.104Z,10.48
2018-02-18T01:31:00.827Z,11.25
2018-02-18T01:33:30.648Z,10.15
2018-02-18T01:36:00.340Z,11.35
2018-02-18T01:38:30.045Z,10.57
2018-02-18T01:41:00.536Z,10.90
2018-02-18T01:43:30.344Z,10.30
2018-02-18T01:46:00.109Z,10.77
2018-02-18T01:48:29.982Z,10.13
2018-02-18T01:50:59.726Z,10.18
2018-02-18T01:53:29.421Z,10.52
2018-02-18T01:55:59.132Z,9.55
2018-02-18T01:58:28.930Z,10.68
2018-02-18T02:00:59.561Z,11.48
2018-02-18T02:03:29.305Z,10.07
2018-02-18T02:05:59.917Z,10.25
2018-02-18T02:08:29.593Z,11.12
2018-02-18T02:10:59.333Z,11.43
2018-02-18T02:13:29.154Z,10.45
2018-02-18T02:15:58.952Z,9.63
2018-02-18T02:18:28.928Z,9.23
2018-02-18T02:20:58.633Z,9.88
2018-02-18T02:23:29.217Z,9.77
2018-02-18T02:25:59.677Z,9.50
2018-02-18T02:28:30.044Z,9.68
2018-02-18T02:30:59.915Z,9.80
2018-02-18T02:33:29.691Z,10.75
2018-02-18T02:35:59.451Z,10.63
2018-02-18T02:38:29.270Z,9.40
2018-02-18T02:41:00.182Z,9.88
2018-02-18T02:43:29.892Z,10.35
2018-02-18T02:45:59.773Z,9.52
2018-02-18T02:48:29.472Z,8.77
2018-02-18T02:50:59.314Z,9.48
2018-02-18T02:53:29.052Z,9.60
2018-02-18T02:55:59.951Z,8.95
2018-02-18T02:58:29.707Z,8.98
2018-02-18T03:00:59.479Z,9.15
2018-02-18T03:03:29.192Z,9.85
2018-02-18T03:05:58.916Z,9.40
2018-02-18T03:08:28.635Z,10.77
2018-02-18T03:10:59.369Z,9.18
2018-02-18T03:13:29.860Z,8.80
2018-02-18T03:15:59.646Z,9.73
2018-02-18T03:18:29.359Z,8.80
2018-02-18T03:20:59.028Z,9.77
2018-02-18T03:23:28.761Z,8.23
2018-02-18T03:25:58.605Z,8.63
2018-02-18T03:28:29.196Z,9.63
2018-02-18T03:30:59.010Z,8.85
2018-02-18T03:33:28.760Z,9.65
2018-02-18T03:35:58.869Z,8.80
2018-02-18T03:38:28.606Z,8.93
2018-02-18T03:40:58.481Z,8.73
2018-02-18T03:43:28.940Z,9.48
2018-02-18T03:45:58.668Z,10.15
2018-02-18T03:48:28.434Z,8.95
2018-02-18T03:50:58.251Z,8.88
2018-02-18T03:53:27.930Z,9.02
2018-02-18T03:55:57.694Z,9.57
2018-02-18T03:58:27.610Z,9.38
2018-02-18T04:00:57.328Z,9.13
2018-02-18T04:03:27.040Z,9.23
2018-02-18T04:05:56.827Z,7.68
2018-02-18T04:08:26.520Z,10.13
2018-02-18T04:10:56.235Z,8.70
2018-02-18T04:13:26.028Z,8.65
2018-02-18T04:15:55.785Z,9.20
2018-02-18T04:18:25.538Z,8.23
2018-02-18T04:20:55.337Z,8.23
2018-02-18T04:23:25.801Z,9.20
2018-02-18T04:25:55.533Z,9.10
2018-02-18T04:28:25.321Z,7.72
2018-02-18T04:30:55.039Z,8.27
2018-02-18T04:33:24.824Z,9.77
2018-02-18T04:35:54.519Z,9.07
2018-02-18T04:38:24.263Z,9.98
2018-02-18T04:40:54.095Z,9.38
2018-02-18T04:43:23.784Z,9.57
2018-02-18T04:45:53.508Z,10.30
2018-02-18T04:48:23.472Z,9.05
2018-02-18T04:50:53.180Z,9.90
2018-02-18T04:53:23.028Z,8.38
2018-02-18T04:55:52.767Z,9.27
2018-02-18T04:58:22.744Z,9.13
2018-02-18T05:00:52.464Z,9.60
2018-02-18T05:03:22.284Z,10.45
2018-02-18T05:05:52.097Z,8.95
2018-02-18T05:08:21.950Z,10.48
2018-02-18T05:10:51.637Z,10.00
2018-02-18T05:13:21.485Z,9.30
2018-02-18T05:15:51.244Z,10.43
2018-02-18T05:18:21.097Z,10.68
2018-02-18T05:20:50.817Z,10.18
2018-02-18T05:23:21.289Z,9.27
2018-02-18T05:25:50.998Z,10.48
2018-02-18T05:28:20.996Z,9.65
2018-02-18T05:30:51.567Z,10.88
2018-02-18T05:33:21.474Z,9.80
2018-02-18T05:35:51.933Z,10.77
2018-02-18T05:38:21.893Z,11.77
2018-02-18T05:40:51.786Z,11.20
2018-02-18T05:43:21.923Z,10.75
2018-02-18T05:45:51.744Z,10.13
2018-02-18T05:48:21.832Z,11.55
2018-02-18T05:50:52.310Z,10.68
2018-02-18T05:53:22.349Z,12.18
2018-02-18T05:55:52.111Z,10.93
2018-02-18T05:58:21.912Z,12.10
2018-02-18T06:00:51.591Z,13.95
2018-02-18T06:03:21.328Z,11.57
2018-02-18T06:05:51.012Z,13.70
2018-02-18T06:08:20.915Z,12.48
2018-02-18T06:10:50.741Z,11.82
2018-02-18T06:13:20.610Z,11.57
2018-02-18T06:15:50.406Z,11.63
2018-02-18T06:18:20.117Z,12.40
2018-02-18T06:20:49.837Z,12.00
2018-02-18T06:23:19.643Z,13.07
2018-02-18T06:25:49.398Z,12.45
2018-02-18T06:28:20.007Z,12.37
2018-02-18T06:30:49.707Z,11.70
2018-02-18T06:33:19.513Z,11.73
2018-02-18T06:35:49.238Z,12.50
2018-02-18T06:38:19.093Z,13.38
2018-02-18T06:40:48.808Z,11.93
2018-02-18T06:43:18.546Z,12.82
2018-02-18T06:45:48.262Z,12.88
2018-02-18T06:48:17.978Z,13.93
2018-02-18T06:50:47.836Z,15.05
2018-02-18T06:53:18.509Z,12.65
2018-02-18T06:55:49.956Z,14.40
2018-02-18T06:58:19.603Z,13.48
2018-02-18T07:00:50.268Z,13.07
2018-02-18T07:03:20.318Z,14.87
2018-02-18T07:05:50.036Z,12.77
2018-02-18T07:08:19.752Z,10.55
2018-02-18T07:10:50.008Z,14.70
2018-02-18T07:13:20.272Z,13.20
2018-02-18T07:15:50.376Z,13.75
2018-02-18T07:18:20.585Z,13.20
2018-02-18T07:20:50.575Z,13.52
2018-02-18T07:23:20.989Z,11.68
2018-02-18T07:25:50.869Z,12.43
2018-02-18T07:28:20.883Z,14.80
2018-02-18T07:30:50.989Z,12.98
2018-02-18T07:33:21.119Z,11.38
2018-02-18T07:35:51.293Z,13.80
2018-02-18T07:38:21.076Z,12.45
2018-02-18T07:40:51.137Z,13.07
2018-02-18T07:43:21.542Z,14.35
2018-02-18T07:45:53.474Z,13.60
2018-02-18T07:48:23.213Z,13.60
2018-02-18T07:50:54.543Z,13.32
2018-02-18T07:53:24.310Z,14.55
2018-02-18T07:55:54.020Z,14.38
2018-02-18T07:58:23.956Z,13.82
2018-02-18T08:00:53.621Z,14.70
2018-02-18T08:03:23.364Z,14.50
2018-02-18T08:05:53.227Z,13.70
2018-02-18T08:08:23.018Z,14.07
2018-02-18T08:10:52.867Z,14.50
2018-02-18T08:13:23.297Z,14.20
2018-02-18T08:15:53.118Z,13.32
2018-02-18T08:18:23.605Z,12.73
2018-02-18T08:20:53.389Z,14.63
2018-02-18T08:23:23.125Z,14.70
2018-02-18T08:25:53.126Z,15.45
2018-02-18T08:28:23.679Z,14.40
2018-02-18T08:30:53.410Z,14.30
2018-02-18T08:33:23.441Z,14.05
2018-02-18T08:35:53.226Z,13.38
2018-02-18T08:38:23.230Z,14.05
2018-02-18T08:40:53.300Z,14.65
2018-02-18T08:43:23.312Z,14.40
2018-02-18T08:45:54.547Z,14.15
2018-02-18T08:48:24.306Z,15.07
2018-02-18T08:50:54.769Z,15.20
2018-02-18T08:53:24.742Z,13.77
2018-02-18T08:55:54.580Z,15.57
2018-02-18T08:58:24.478Z,12.70
2018-02-18T09:00:54.516Z,13.90
2018-02-18T09:03:24.582Z,14.83
2018-02-18T09:05:54.505Z,14.13
2018-02-18T09:08:24.462Z,14.70
2018-02-18T09:10:54.166Z,14.93
2018-02-18T09:13:24.915Z,15.50
2018-02-18T09:15:54.659Z,14.03
2018-02-18T09:18:24.765Z,15.20
2018-02-18T09:20:55.405Z,12.87
2018-02-18T09:23:25.214Z,14.40
2018-02-18T09:25:55.002Z,14.43
2018-02-18T09:28:24.968Z,15.40
2018-02-18T09:30:55.448Z,14.83
2018-02-18T09:33:25.391Z,14.10
2018-02-18T09:35:55.099Z,14.20
2018-02-18T09:38:24.947Z,13.67
2018-02-18T09:40:54.820Z,14.63
2018-02-18T09:43:25.325Z,13.77
2018-02-18T09:45:55.163Z,14.93
2018-02-18T09:48:25.157Z,14.70
2018-02-18T09:50:55.066Z,14.70
2018-02-18T09:53:24.833Z,14.17
2018-02-18T09:55:54.922Z,14.17
2018-02-18T09:58:25.177Z,14.00
2018-02-18T10:00:55.132Z,14.40
2018-02-18T10:03:25.021Z,14.50
2018-02-18T10:05:54.842Z,13.97
2018-02-18T10:08:24.609Z,13.90
2018-02-18T10:10:54.630Z,14.37
2018-02-18T10:13:24.707Z,13.80
2018-02-18T10:15:54.722Z,14.10
2018-02-18T10:18:24.715Z,13.87
2018-02-18T10:20:54.898Z,14.00
2018-02-18T10:23:25.106Z,14.93
2018-02-18T10:25:55.659Z,13.87
2018-02-18T10:28:25.816Z,14.03
2018-02-18T10:30:56.037Z,13.93
2018-02-18T10:33:26.169Z,14.23
2018-02-18T10:35:56.169Z,14.37
2018-02-18T10:38:26.332Z,13.73
2018-02-18T10:40:56.818Z,13.37
2018-02-18T10:43:26.736Z,15.87
2018-02-18T10:45:56.794Z,15.93
2018-02-18T10:48:26.813Z,13.63
2018-02-18T10:50:57.537Z,15.40
2018-02-18T10:53:27.470Z,14.53
2018-02-18T10:55:57.393Z,16.47
2018-02-18T10:58:27.484Z,15.40
2018-02-18T11:00:57.715Z,15.83
2018-02-18T11:03:27.722Z,15.93
2018-02-18T11:05:57.615Z,14.20
2018-02-18T11:08:27.590Z,14.87
2018-02-18T11:10:57.447Z,14.63
2018-02-18T11:13:27.506Z,12.10
2018-02-18T11:15:57.364Z,14.63
2018-02-18T11:18:27.298Z,14.23
2018-02-18T11:20:57.359Z,15.60
2018-02-18T11:23:27.239Z,13.63
2018-02-18T11:25:57.394Z,13.63
2018-02-18T11:28:27.418Z,13.93
2018-02-18T11:30:57.652Z,13.50
2018-02-18T11:33:27.881Z,14.70
2018-02-18T11:35:57.911Z,14.57
2018-02-18T11:38:28.174Z,13.53
2018-02-18T11:40:58.079Z,12.87
2018-02-18T11:43:28.142Z,13.77
2018-02-18T11:45:57.907Z,13.43
2018-02-18T11:48:27.760Z,14.87
2018-02-18T11:50:59.273Z,14.73
2018-02-18T11:53:29.868Z,14.20
2018-02-18T11:55:59.735Z,13.47
2018-02-18T11:58:30.356Z,16.23
2018-02-18T12:01:00.150Z,13.20
2018-02-18T12:03:30.009Z,13.57
2018-02-18T12:06:01.333Z,13.80
2018-02-18T12:08:31.085Z,13.37
2018-02-18T12:11:00.885Z,13.70
2018-02-18T12:13:30.665Z,13.60
2018-02-18T12:16:00.359Z,14.07
2018-02-18T12:18:30.264Z,13.70
2018-02-18T12:21:00.012Z,13.87
2018-02-18T12:23:29.772Z,13.57
2018-02-18T12:25:59.527Z,13.67
2018-02-18T12:28:29.337Z,13.90
2018-02-18T12:30:59.545Z,13.30
2018-02-18T12:33:29.933Z,13.03
2018-02-18T12:36:00.267Z,14.60
2018-02-18T12:38:30.160Z,14.97
2018-02-18T12:40:59.923Z,13.77
2018-02-18T12:43:29.695Z,13.03
2018-02-18T12:45:59.520Z,14.00
2018-02-18T12:48:29.282Z,14.30
2018-02-18T12:50:59.184Z,15.00
2018-02-18T12:53:29.394Z,14.97
2018-02-18T12:55:59.233Z,14.23
2018-02-18T12:58:29.662Z,14.00
2018-02-18T13:01:00.219Z,13.80
2018-02-18T13:03:30.741Z,15.43
2018-02-18T13:06:00.588Z,14.50
2018-02-18T13:08:30.596Z,14.53
2018-02-18T13:11:00.612Z,12.50
2018-02-18T13:13:30.781Z,13.63
2018-02-18T13:16:00.586Z,13.70
2018-02-18T13:18:30.478Z,13.90
2018-02-18T13:21:00.318Z,14.40
2018-02-18T13:23:30.138Z,13.03
2018-02-18T13:25:59.903Z,13.93
2018-02-18T13:28:29.717Z,13.47
2018-02-18T13:30:59.572Z,13.80
2018-02-18T13:33:29.355Z,14.97
2018-02-18T13:35:59.304Z,14.07
2018-02-18T13:38:29.949Z,12.47
2018-02-18T13:41:00.689Z,13.80
2018-02-18T13:43:30.912Z,14.53
2018-02-18T13:46:00.686Z,14.50
2018-02-18T13:48:31.229Z,14.43
2018-02-18T13:51:01.025Z,14.30
2018-02-18T13:53:30.966Z,13.90
2018-02-18T13:56:01.455Z,14.50
2018-02-18T13:58:31.846Z,14.90
2018-02-18T14:01:02.388Z,14.83
2018-02-18T14:03:32.323Z,14.20
2018-02-18T14:06:02.879Z,15.57
2018-02-18T14:08:32.656Z,14.83
2018-02-18T14:11:02.433Z,15.23
2018-02-18T14:13:32.569Z,14.43
2018-02-18T14:16:02.864Z,14.37
2018-02-18T14:18:32.648Z,15.27
2018-02-18T14:21:02.622Z,15.57
2018-02-18T14:23:32.394Z,15.70
2018-02-18T14:26:02.482Z,14.53
2018-02-18T14:28:32.212Z,14.90
2018-02-18T14:31:02.338Z,15.43
2018-02-18T14:33:32.871Z,14.17
2018-02-18T14:36:03.358Z,15.80
2018-02-18T14:38:33.352Z,13.70
2018-02-18T14:41:03.060Z,14.17
2018-02-18T14:45:50.538Z,14.73
2018-02-18T14:50:37.866Z,14.43
2018-02-18T14:54:58.950Z,12.00
2018-02-18T14:57:32.092Z,14.13
2018-02-18T15:00:01.984Z,14.80
2018-02-18T15:02:31.814Z,11.13
2018-02-18T15:05:01.692Z,15.20
2018-02-18T15:07:31.801Z,14.73
2018-02-18T15:10:01.582Z,14.20
2018-02-18T15:12:31.557Z,15.80
2018-02-18T15:15:02.339Z,13.83
2018-02-18T15:17:32.227Z,14.97
2018-02-18T15:20:02.200Z,15.83
2018-02-18T15:22:32.105Z,15.90
2018-02-18T15:25:02.647Z,12.20
2018-02-18T15:27:32.472Z,13.67
2018-02-18T15:30:03.117Z,12.70
2018-02-18T15:32:32.960Z,13.43
2018-02-18T15:35:04.366Z,13.60
2018-02-18T15:37:34.113Z,13.80
2018-02-18T15:40:04.719Z,13.73
2018-02-18T15:42:34.483Z,12.47
2018-02-18T15:45:05.043Z,13.43
2018-02-18T15:47:34.800Z,12.30
2018-02-18T15:50:04.600Z,11.83
2018-02-18T15:52:34.352Z,13.20
2018-02-18T15:55:04.178Z,11.20
2018-02-18T15:57:33.952Z,11.40
2018-02-18T16:00:03.768Z,9.83
2018-02-18T16:02:34.267Z,10.67
2018-02-18T16:05:04.096Z,11.30
2018-02-18T16:07:33.873Z,9.03
2018-02-18T16:10:04.814Z,9.97
2018-02-18T16:12:34.546Z,9.30
2018-02-18T16:15:04.360Z,8.97
2018-02-18T16:17:34.097Z,9.53
2018-02-18T16:20:05.047Z,7.17
2018-02-18T16:22:35.932Z,9.53
2018-02-18T16:25:05.874Z,7.90
2018-02-18T16:27:35.696Z,8.43
2018-02-18T16:30:05.472Z,7.17
2018-02-18T16:32:35.394Z,7.50
2018-02-18T16:35:05.881Z,6.87
2018-02-18T16:37:37.063Z,6.40
2018-02-18T16:40:06.966Z,5.90
2018-02-18T16:42:36.832Z,6.67
2018-02-18T16:45:06.857Z,7.63
2018-02-18T16:47:36.677Z,7.37
2018-02-18T16:50:06.154Z,7.07
2018-02-18T16:52:35.895Z,5.97
2018-02-18T16:55:06.448Z,6.67
2018-02-18T16:57:36.810Z,7.57
2018-02-18T17:00:06.598Z,7.67
2018-02-18T17:02:36.461Z,7.03
2018-02-18T17:05:06.529Z,7.83
2018-02-18T17:07:36.316Z,6.47
2018-02-18T17:10:06.097Z,8.90
2018-02-18T17:12:38.208Z,8.30
2018-02-18T17:15:09.234Z,7.90
2018-02-18T17:17:39.307Z,7.47
2018-02-18T17:20:09.681Z,9.20
2018-02-18T17:22:39.612Z,8.57
2018-02-18T17:25:10.270Z,7.33
2018-02-18T17:27:40.144Z,8.57
2018-02-18T17:30:10.116Z,9.03
2018-02-18T17:32:40.665Z,8.53
2018-02-18T17:35:11.319Z,6.97
2018-02-18T17:37:41.163Z,8.87
2018-02-18T17:40:11.939Z,9.87
2018-02-18T17:42:41.871Z,9.03
2018-02-18T17:45:11.674Z,9.43
2018-02-18T17:47:42.611Z,9.40
2018-02-18T17:50:13.961Z,9.63
2018-02-18T17:52:45.418Z,8.87
2018-02-18T17:55:16.068Z,8.33
2018-02-18T17:57:46.552Z,7.63
2018-02-18T18:00:19.330Z,8.93
2018-02-18T18:02:50.228Z,9.80
2018-02-18T18:05:20.948Z,8.97
2018-02-18T18:07:51.149Z,7.57
2018-02-18T18:10:21.123Z,8.83
2018-02-18T18:12:51.652Z,8.73
2018-02-18T18:15:24.351Z,7.67
2018-02-18T18:17:54.445Z,8.03
2018-02-18T18:20:30.941Z,8.37
2018-02-18T18:23:00.887Z,9.13
2018-02-18T18:25:31.629Z,8.67
2018-02-18T18:28:03.105Z,8.67
2018-02-18T18:30:33.599Z,10.33
2018-02-18T18:33:03.681Z,10.50
2018-02-18T18:35:33.743Z,10.13
2018-02-18T18:38:05.619Z,9.43
2018-02-18T18:40:36.002Z,9.97
2018-02-18T18:43:08.173Z,9.07
2018-02-18T18:45:38.789Z,10.03
2018-02-18T18:48:09.671Z,9.33
2018-02-18T18:50:40.070Z,11.30
2018-02-18T18:53:10.393Z,11.90
2018-02-18T18:55:40.666Z,9.87
2018-02-18T18:58:10.772Z,10.73
2018-02-18T19:00:43.648Z,8.87
2018-02-18T19:03:14.071Z,11.03
2018-02-18T19:05:46.814Z,10.80
2018-02-18T19:08:20.430Z,10.93
2018-02-18T19:10:51.677Z,11.25
2018-02-18T19:13:22.013Z,10.17
2018-02-18T19:15:52.199Z,10.10
2018-02-18T19:18:22.837Z,9.60
2018-02-18T19:20:52.878Z,11.10
2018-02-18T19:23:22.700Z,9.93
2018-02-18T19:25:54.000Z,9.73
2018-02-18T19:28:23.809Z,10.17
2018-02-18T19:30:53.728Z,10.90
2018-02-18T19:33:23.573Z,10.20
2018-02-18T19:35:53.400Z,10.53
2018-02-18T19:38:23.225Z,11.50
2018-02-18T19:40:53.061Z,10.15
2018-02-18T19:43:22.995Z,9.23
2018-02-18T19:45:52.767Z,11.02
2018-02-18T19:48:22.597Z,10.63
2018-02-18T19:50:52.385Z,9.60
2018-02-18T19:53:23.175Z,11.93
2018-02-18T19:55:53.003Z,11.37
2018-02-18T19:58:22.903Z,10.52
2018-02-18T20:00:52.746Z,11.67
2018-02-18T20:03:23.244Z,11.48
2018-02-18T20:05:53.953Z,10.70
2018-02-18T20:08:23.819Z,10.57
2018-02-18T20:10:53.796Z,12.60
2018-02-18T20:13:23.544Z,12.10
2018-02-18T20:15:55.391Z,12.43
2018-02-18T20:18:25.686Z,11.12
2018-02-18T20:20:55.464Z,13.05
2018-02-18T20:23:25.285Z,11.33
2018-02-18T20:25:55.049Z,12.60
2018-02-18T20:28:25.562Z,12.55
2018-02-18T20:30:56.388Z,12.77
2018-02-18T20:33:26.180Z,11.88
2018-02-18T20:35:56.302Z,14.57
2018-02-18T20:38:26.469Z,11.88
2018-02-18T20:40:56.277Z,12.85
2018-02-18T20:43:26.656Z,14.18
2018-02-18T20:45:57.502Z,12.50
2018-02-18T20:48:27.311Z,12.20
2018-02-18T20:50:57.168Z,14.13
2018-02-18T20:53:27.738Z,13.60
2018-02-18T20:55:57.592Z,14.60
2018-02-18T20:58:27.397Z,14.40
2018-02-18T21:00:57.972Z,14.73
2018-02-18T21:03:27.814Z,14.65
2018-02-18T21:05:57.647Z,14.27
2018-02-18T21:08:28.183Z,16.05
2018-02-18T21:10:57.949Z,13.90
2018-02-18T21:13:28.261Z,15.75
2018-02-18T21:15:58.059Z,15.95
2018-02-18T21:18:28.677Z,14.15
2018-02-18T21:20:59.293Z,16.85
2018-02-18T21:23:29.766Z,14.23
2018-02-18T21:25:59.718Z,15.70
2018-02-18T21:28:30.364Z,14.52
2018-02-18T21:31:00.137Z,14.32
2018-02-18T21:33:30.292Z,13.98
2018-02-18T21:36:00.182Z,15.98
2018-02-18T21:38:30.062Z,15.90
2018-02-18T21:40:59.989Z,17.20
2018-02-18T21:43:30.529Z,15.18
2018-02-18T21:46:01.269Z,15.82
2018-02-18T21:48:31.065Z,15.48
2018-02-18T21:51:01.100Z,14.48
2018-02-18T21:53:30.911Z,15.73
2018-02-18T21:56:01.192Z,14.57
2018-02-18T21:58:31.313Z,15.30
2018-02-18T22:01:01.260Z,15.80
2018-02-18T22:03:32.143Z,15.80
2018-02-18T22:06:02.618Z,14.95
2018-02-18T22:08:32.823Z,14.82
2018-02-18T22:11:03.106Z,15.75
2018-02-18T22:13:33.411Z,17.13
2018-02-18T22:16:03.675Z,16.12
2018-02-18T22:18:34.152Z,15.77
2018-02-18T22:21:04.501Z,15.27
2018-02-18T22:23:35.044Z,16.77
2018-02-18T22:26:04.898Z,15.48
2018-02-18T22:28:34.884Z,15.40
2018-02-18T22:31:04.672Z,16.15
2018-02-18T22:33:34.449Z,17.48
2018-02-18T22:36:04.353Z,15.13
2018-02-18T22:38:34.126Z,16.70
2018-02-18T22:41:04.168Z,16.67
2018-02-18T22:43:33.902Z,16.12
2018-02-18T22:46:04.427Z,15.52
2018-02-18T22:48:34.163Z,15.95
2018-02-18T22:51:04.754Z,17.60
2018-02-18T22:53:34.496Z,17.25
2018-02-18T22:56:04.460Z,16.35
2018-02-18T22:58:35.536Z,15.20
2018-02-18T23:01:05.280Z,18.30
2018-02-18T23:03:35.242Z,16.50
2018-02-18T23:06:05.146Z,16.77
2018-02-18T23:08:34.913Z,17.92
2018-02-18T23:11:05.437Z,16.12
2018-02-18T23:13:35.214Z,16.87
2018-02-18T23:16:05.049Z,15.43
2018-02-18T23:18:35.723Z,17.20
2018-02-18T23:21:13.219Z,16.00
2018-02-18T23:23:43.004Z,17.70
2018-02-18T23:26:12.742Z,15.95
2018-02-18T23:28:42.600Z,14.57
2018-02-18T23:31:12.393Z,15.35
2018-02-18T23:33:42.149Z,15.60
2018-02-18T23:36:11.933Z,15.40
2018-02-18T23:38:41.836Z,16.45
2018-02-18T23:41:11.619Z,16.75
2018-02-18T23:43:42.095Z,15.27
2018-02-18T23:46:11.990Z,15.55
2018-02-18T23:48:42.511Z,14.75
2018-02-18T23:51:12.507Z,16.75
2018-02-18T23:53:42.213Z,14.52
2018-02-18T23:56:12.052Z,16.87
2018-02-18T23:58:41.832Z,16.10
